createdAt,value
2023-06-07T00:01:07.963Z,49.06
2023-06-07T00:03:35.869Z,49.08
2023-06-07T00:06:02.635Z,49.23
2023-06-07T00:08:32.428Z,49.23
2023-06-07T00:10:59.586Z,49.16
2023-06-07T00:13:26.171Z,49.20
2023-06-07T00:15:52.735Z,49.35
2023-06-07T00:18:20.705Z,49.32
2023-06-07T00:20:47.455Z,49.33
2023-06-07T00:23:17.104Z,49.39
2023-06-07T00:25:43.952Z,49.47
2023-06-07T00:28:10.703Z,49.17
2023-06-07T00:30:37.240Z,49.54
2023-06-07T00:33:04.138Z,49.42
2023-06-07T00:35:30.765Z,49.19
2023-06-07T00:37:57.356Z,49.24
2023-06-07T00:40:23.984Z,49.00
2023-06-07T00:42:50.660Z,49.26
2023-06-07T00:45:17.376Z,49.33
2023-06-07T00:47:44.276Z,49.33
2023-06-07T00:50:11.737Z,48.94
2023-06-07T00:52:38.951Z,49.13
2023-06-07T00:55:06.547Z,49.19
2023-06-07T00:57:34.128Z,49.33
2023-06-07T01:00:02.854Z,49.12
2023-06-07T01:02:30.578Z,49.26
2023-06-07T01:04:58.974Z,49.36
2023-06-07T01:07:26.239Z,49.12
2023-06-07T01:09:54.338Z,49.06
2023-06-07T01:12:22.291Z,48.95
2023-06-07T01:14:50.050Z,48.83
2023-06-07T01:17:19.207Z,48.76
2023-06-07T01:19:52.942Z,48.64
2023-06-07T01:22:22.047Z,48.67
2023-06-07T01:24:49.526Z,48.60
2023-06-07T01:27:16.369Z,48.60
2023-06-07T01:29:44.592Z,48.63
2023-06-07T01:32:13.459Z,48.75
2023-06-07T01:34:41.118Z,48.82
2023-06-07T01:37:08.695Z,48.81
2023-06-07T01:39:37.416Z,49.18
2023-06-07T01:42:04.926Z,49.43
2023-06-07T01:44:32.168Z,49.12
2023-06-07T01:46:58.798Z,49.26
2023-06-07T01:49:25.385Z,49.25
2023-06-07T01:51:51.948Z,49.19
2023-06-07T01:54:19.651Z,49.14
2023-06-07T01:57:06.037Z,49.13
2023-06-07T01:59:58.537Z,49.05
2023-06-07T02:02:38.605Z,49.05
2023-06-07T02:05:10.590Z,49.25
2023-06-07T02:07:44.780Z,48.88
2023-06-07T02:10:12.077Z,49.06
2023-06-07T02:12:40.165Z,48.90
2023-06-07T02:15:08.637Z,48.78
2023-06-07T02:17:36.174Z,48.68
2023-06-07T02:20:04.456Z,48.82
2023-06-07T02:22:31.403Z,48.73
2023-06-07T02:24:57.930Z,48.86
2023-06-07T02:27:24.474Z,49.09
2023-06-07T02:29:50.995Z,48.93
2023-06-07T02:32:17.822Z,48.71
2023-06-07T02:34:44.477Z,48.91
2023-06-07T02:37:11.408Z,49.13
2023-06-07T02:39:38.205Z,49.19
2023-06-07T02:42:04.887Z,49.30
2023-06-07T02:44:31.462Z,49.22
2023-06-07T02:46:58.015Z,49.09
2023-06-07T02:49:24.540Z,49.22
2023-06-07T02:51:51.052Z,48.98
2023-06-07T02:54:20.460Z,48.77
2023-06-07T02:56:47.223Z,48.91
2023-06-07T02:59:13.833Z,48.95
2023-06-07T03:01:40.444Z,48.85
2023-06-07T03:04:07.258Z,48.87
2023-06-07T03:06:34.333Z,48.92
2023-06-07T03:09:00.915Z,48.96
2023-06-07T03:11:27.442Z,48.83
2023-06-07T03:13:53.984Z,48.92
2023-06-07T03:16:20.760Z,48.79
2023-06-07T03:18:47.327Z,48.99
2023-06-07T03:21:13.855Z,48.79
2023-06-07T03:23:41.206Z,48.65
2023-06-07T03:26:08.668Z,48.73
2023-06-07T03:28:35.809Z,48.59
2023-06-07T03:31:02.645Z,48.65
2023-06-07T03:33:29.187Z,48.71
2023-06-07T03:35:57.351Z,48.69
2023-06-07T03:38:23.901Z,48.55
2023-06-07T03:40:50.654Z,48.57
2023-06-07T03:43:17.211Z,48.46
2023-06-07T03:45:43.713Z,48.61
2023-06-07T03:48:10.312Z,48.66
2023-06-07T03:50:36.915Z,48.82
2023-06-07T03:53:03.441Z,48.77
2023-06-07T03:55:30.714Z,48.63
2023-06-07T03:57:57.684Z,48.78
2023-06-07T04:00:28.054Z,48.86
2023-06-07T04:02:55.534Z,48.81
2023-06-07T04:05:25.667Z,48.73
2023-06-07T04:07:52.260Z,48.70
2023-06-07T04:10:18.775Z,48.96
2023-06-07T04:12:46.216Z,49.01
2023-06-07T04:15:12.750Z,48.79
2023-06-07T04:17:39.276Z,48.96
2023-06-07T04:20:07.474Z,48.76
2023-06-07T04:22:36.609Z,48.89
2023-06-07T04:25:04.678Z,49.28
2023-06-07T04:27:31.925Z,49.10
2023-06-07T04:29:58.519Z,49.10
2023-06-07T04:32:26.343Z,48.83
2023-06-07T04:34:53.005Z,48.91
2023-06-07T04:37:20.417Z,49.00
2023-06-07T04:39:50.307Z,48.88
2023-06-07T04:42:20.729Z,49.02
2023-06-07T04:44:48.661Z,49.00
2023-06-07T04:47:15.194Z,49.29
2023-06-07T04:49:41.934Z,49.04
2023-06-07T04:52:08.989Z,49.33
2023-06-07T04:54:37.782Z,49.31
2023-06-07T04:57:05.536Z,49.51
2023-06-07T04:59:35.904Z,49.40
2023-06-07T05:02:03.211Z,49.42
2023-06-07T05:04:31.320Z,49.37
2023-06-07T05:06:59.700Z,49.43
2023-06-07T05:09:28.745Z,49.33
2023-06-07T05:11:57.107Z,49.21
2023-06-07T05:14:23.676Z,49.34
2023-06-07T05:16:50.186Z,49.49
2023-06-07T05:19:17.990Z,49.53
2023-06-07T05:21:44.563Z,49.55
2023-06-07T05:24:11.298Z,49.37
2023-06-07T05:26:38.070Z,49.20
2023-06-07T05:29:04.614Z,49.35
2023-06-07T05:31:31.824Z,49.29
2023-06-07T05:33:58.429Z,48.98
2023-06-07T05:36:24.999Z,49.07
2023-06-07T05:38:51.523Z,49.12
2023-06-07T05:41:18.266Z,49.22
2023-06-07T05:43:44.862Z,49.04
2023-06-07T05:46:11.536Z,49.21
2023-06-07T05:48:38.048Z,49.10
2023-06-07T05:51:06.679Z,49.18
2023-06-07T05:53:34.866Z,49.17
2023-06-07T05:56:01.432Z,49.04
2023-06-07T05:58:28.340Z,49.06
2023-06-07T06:00:55.297Z,48.75
2023-06-07T06:03:22.447Z,48.78
2023-06-07T06:05:49.227Z,48.31
2023-06-07T06:08:16.964Z,48.44
2023-06-07T06:10:45.832Z,48.60
2023-06-07T06:13:12.449Z,48.21
2023-06-07T06:15:39.024Z,48.26
2023-06-07T06:18:05.770Z,48.25
2023-06-07T06:20:35.094Z,48.08
2023-06-07T06:23:04.984Z,47.99
2023-06-07T06:25:32.139Z,47.88
2023-06-07T06:28:01.801Z,47.96
2023-06-07T06:30:28.701Z,47.81
2023-06-07T06:32:55.978Z,47.89
2023-06-07T06:35:22.716Z,47.72
2023-06-07T06:37:49.425Z,47.61
2023-06-07T06:40:16.634Z,47.39
2023-06-07T06:42:43.195Z,47.41
2023-06-07T06:45:09.941Z,47.35
2023-06-07T06:47:38.231Z,47.29
2023-06-07T06:50:11.952Z,47.13
2023-06-07T06:52:45.593Z,46.99
2023-06-07T06:55:12.143Z,47.15
2023-06-07T06:57:38.673Z,46.88
2023-06-07T07:00:09.231Z,47.34
2023-06-07T07:02:35.844Z,46.88
2023-06-07T07:05:04.708Z,46.82
2023-06-07T07:07:31.218Z,46.78
2023-06-07T07:09:57.821Z,46.86
2023-06-07T07:12:24.520Z,46.73
2023-06-07T07:14:51.183Z,46.73
2023-06-07T07:17:18.091Z,46.80
2023-06-07T07:19:44.712Z,46.96
2023-06-07T07:22:13.355Z,46.88
2023-06-07T07:24:39.958Z,46.96
2023-06-07T07:27:07.809Z,47.05
2023-06-07T07:29:34.466Z,46.69
2023-06-07T07:32:01.111Z,46.98
2023-06-07T07:34:27.715Z,46.78
2023-06-07T07:36:54.761Z,46.56
2023-06-07T07:39:23.175Z,46.51
2023-06-07T07:41:49.807Z,46.68
2023-06-07T07:44:16.419Z,46.41
2023-06-07T07:46:42.978Z,46.42
2023-06-07T07:49:10.555Z,45.98
2023-06-07T07:51:37.685Z,46.04
2023-06-07T07:54:05.230Z,46.01
2023-06-07T07:56:31.767Z,46.18
2023-06-07T07:58:58.300Z,45.96
2023-06-07T08:01:25.094Z,46.00
2023-06-07T08:03:52.178Z,45.95
2023-06-07T08:06:18.948Z,45.81
2023-06-07T08:08:48.555Z,46.19
2023-06-07T08:11:15.158Z,45.58
2023-06-07T08:13:41.692Z,45.77
2023-06-07T08:16:08.253Z,45.36
2023-06-07T08:18:34.878Z,45.70
2023-06-07T08:21:01.651Z,45.51
2023-06-07T08:23:28.232Z,45.43
2023-06-07T08:25:55.057Z,45.65
2023-06-07T08:28:21.588Z,45.83
2023-06-07T08:30:48.740Z,45.93
2023-06-07T08:33:15.305Z,45.95
2023-06-07T08:35:41.922Z,45.92
2023-06-07T08:38:09.211Z,46.10
2023-06-07T08:40:39.452Z,46.13
2023-06-07T08:43:06.931Z,46.24
2023-06-07T08:45:33.521Z,46.12
2023-06-07T08:48:07.370Z,46.09
2023-06-07T08:50:34.306Z,46.51
2023-06-07T08:53:07.403Z,46.22
2023-06-07T08:55:34.836Z,46.22
2023-06-07T08:58:02.633Z,46.31
2023-06-07T09:00:30.014Z,46.48
2023-06-07T09:02:56.666Z,46.14
2023-06-07T09:05:23.959Z,46.32
2023-06-07T09:07:51.316Z,46.13
2023-06-07T09:10:21.424Z,46.45
2023-06-07T09:12:49.640Z,46.51
2023-06-07T09:15:21.182Z,46.62
2023-06-07T09:18:01.220Z,46.45
2023-06-07T09:20:29.915Z,46.63
2023-06-07T09:23:01.860Z,46.57
2023-06-07T09:25:29.148Z,46.60
2023-06-07T09:27:56.281Z,46.68
2023-06-07T09:30:23.525Z,46.47
2023-06-07T09:32:50.888Z,46.57
2023-06-07T09:35:21.840Z,46.63
2023-06-07T09:37:52.885Z,46.83
2023-06-07T09:40:20.104Z,46.50
2023-06-07T09:42:57.814Z,46.67
2023-06-07T09:45:24.409Z,46.48
2023-06-07T09:48:01.475Z,46.28
2023-06-07T09:50:29.521Z,46.25
2023-06-07T09:52:57.877Z,46.47
2023-06-07T09:55:29.445Z,46.12
2023-06-07T09:57:59.585Z,46.19
2023-06-07T10:00:27.143Z,45.93
2023-06-07T10:03:07.326Z,45.39
2023-06-07T10:05:34.475Z,45.31
2023-06-07T10:08:01.438Z,45.21
2023-06-07T10:10:28.909Z,45.13
2023-06-07T10:12:58.321Z,45.01
2023-06-07T10:15:26.149Z,44.81
2023-06-07T10:18:15.844Z,44.79
2023-06-07T10:20:53.316Z,44.45
2023-06-07T10:23:47.522Z,44.60
2023-06-07T10:26:23.104Z,44.73
2023-06-07T10:29:12.569Z,44.50
2023-06-07T10:31:48.401Z,44.44
2023-06-07T10:34:16.118Z,44.13
2023-06-07T10:36:43.257Z,43.75
2023-06-07T10:39:12.786Z,43.99
2023-06-07T10:41:40.660Z,44.09
2023-06-07T10:44:07.828Z,44.19
2023-06-07T10:46:34.544Z,43.92
2023-06-07T10:49:01.366Z,43.85
2023-06-07T10:51:44.690Z,43.57
2023-06-07T10:54:11.736Z,43.43
2023-06-07T10:56:39.403Z,43.37
2023-06-07T10:59:15.186Z,43.42
2023-06-07T11:01:49.965Z,43.28
2023-06-07T11:04:41.232Z,43.16
2023-06-07T11:07:26.636Z,43.07
2023-06-07T11:10:19.775Z,42.99
2023-06-07T11:12:46.474Z,42.89
2023-06-07T11:15:19.558Z,42.95
2023-06-07T11:18:04.220Z,43.05
2023-06-07T11:20:37.283Z,42.76
2023-06-07T11:23:35.226Z,42.85
2023-06-07T11:26:08.270Z,43.10
2023-06-07T11:28:38.280Z,42.96
2023-06-07T11:31:09.805Z,42.88
2023-06-07T11:33:37.370Z,43.14
2023-06-07T11:36:10.312Z,42.83
2023-06-07T11:38:38.527Z,41.99
2023-06-07T11:41:06.834Z,41.34
2023-06-07T11:43:33.833Z,41.53
2023-06-07T11:46:01.090Z,41.58
2023-06-07T11:48:31.712Z,41.73
2023-06-07T11:51:00.554Z,41.64
2023-06-07T11:53:31.903Z,41.88
2023-06-07T11:56:03.201Z,41.84
2023-06-07T11:58:31.239Z,41.70
2023-06-07T12:00:58.644Z,41.80
2023-06-07T12:03:25.934Z,42.00
2023-06-07T12:05:54.485Z,41.90
2023-06-07T12:08:22.063Z,41.79
2023-06-07T12:10:56.097Z,41.72
2023-06-07T12:13:24.080Z,41.77
2023-06-07T12:15:55.005Z,41.82
2023-06-07T12:18:41.999Z,41.66
2023-06-07T12:21:13.380Z,41.55
2023-06-07T12:23:51.979Z,41.65
2023-06-07T12:26:31.732Z,41.86
2023-06-07T12:29:02.271Z,41.73
2023-06-07T12:31:29.451Z,41.75
2023-06-07T12:33:59.396Z,41.73
2023-06-07T12:36:31.231Z,41.81
2023-06-07T12:39:03.386Z,41.82
2023-06-07T12:41:30.256Z,41.68
2023-06-07T12:44:02.447Z,41.63
2023-06-07T12:46:30.447Z,41.59
2023-06-07T12:48:57.330Z,41.40
2023-06-07T12:51:25.122Z,41.75
2023-06-07T12:53:52.346Z,41.32
2023-06-07T12:56:18.887Z,41.31
2023-06-07T12:58:45.481Z,41.02
2023-06-07T13:01:12.054Z,41.14
2023-06-07T13:03:39.184Z,41.11
2023-06-07T13:06:05.877Z,41.08
2023-06-07T13:08:32.426Z,41.11
2023-06-07T13:10:59.089Z,41.04
2023-06-07T13:13:25.663Z,41.28
2023-06-07T13:15:52.216Z,41.27
2023-06-07T13:18:19.082Z,41.14
2023-06-07T13:20:45.782Z,41.01
2023-06-07T13:23:12.312Z,41.12
2023-06-07T13:25:38.921Z,41.21
2023-06-07T13:28:05.626Z,41.13
2023-06-07T13:30:32.692Z,41.15
2023-06-07T13:32:59.452Z,41.28
2023-06-07T13:35:26.082Z,41.64
2023-06-07T13:37:56.347Z,41.05
2023-06-07T13:40:22.869Z,41.08
2023-06-07T13:42:49.665Z,41.01
2023-06-07T13:45:16.221Z,41.10
2023-06-07T13:47:42.922Z,41.11
2023-06-07T13:50:10.203Z,41.18
2023-06-07T13:52:37.493Z,41.19
2023-06-07T13:55:04.389Z,40.99
2023-06-07T13:57:30.946Z,40.94
2023-06-07T13:59:58.273Z,40.99
2023-06-07T14:02:25.058Z,40.99
2023-06-07T14:04:52.051Z,41.02
2023-06-07T14:07:18.903Z,41.07
2023-06-07T14:09:46.715Z,41.03
2023-06-07T14:12:13.335Z,41.12
2023-06-07T14:14:40.453Z,41.19
2023-06-07T14:17:07.321Z,41.06
2023-06-07T14:19:33.873Z,40.59
2023-06-07T14:22:00.536Z,40.37
2023-06-07T14:24:27.229Z,40.27
2023-06-07T14:26:54.107Z,40.35
2023-06-07T14:29:20.798Z,40.06
2023-06-07T14:31:47.450Z,39.96
2023-06-07T14:34:15.058Z,39.74
2023-06-07T14:36:42.910Z,39.74
2023-06-07T14:39:09.691Z,39.78
2023-06-07T14:41:36.295Z,40.17
2023-06-07T14:44:02.852Z,40.07
2023-06-07T14:46:29.428Z,40.15
2023-06-07T14:48:55.992Z,40.18
2023-06-07T14:51:24.514Z,40.17
2023-06-07T14:53:51.386Z,40.23
2023-06-07T14:56:17.912Z,40.38
2023-06-07T14:58:45.011Z,40.32
2023-06-07T15:01:13.326Z,40.26
2023-06-07T15:03:40.564Z,40.23
2023-06-07T15:06:07.157Z,40.22
2023-06-07T15:08:33.727Z,40.50
2023-06-07T15:11:00.271Z,40.33
2023-06-07T15:13:26.800Z,40.35
2023-06-07T15:15:53.324Z,40.26
2023-06-07T15:18:21.790Z,40.32
2023-06-07T15:20:48.437Z,40.13
2023-06-07T15:23:14.988Z,40.16
2023-06-07T15:25:41.509Z,40.04
2023-06-07T15:28:08.942Z,40.16
2023-06-07T15:30:35.709Z,40.05
2023-06-07T15:33:02.306Z,40.29
2023-06-07T15:35:28.857Z,40.16
2023-06-07T15:37:55.512Z,40.26
2023-06-07T15:40:22.058Z,40.37
2023-06-07T15:42:48.989Z,40.27
2023-06-07T15:45:15.793Z,40.43
2023-06-07T15:47:57.974Z,40.19
2023-06-07T15:50:24.564Z,40.31
2023-06-07T15:52:51.104Z,40.19
2023-06-07T15:55:17.736Z,40.09
2023-06-07T15:57:44.279Z,39.96
2023-06-07T16:00:19.491Z,39.95
2023-06-07T16:02:54.636Z,39.83
2023-06-07T16:05:21.441Z,39.86
2023-06-07T16:07:48.038Z,39.67
2023-06-07T16:10:14.608Z,39.86
2023-06-07T16:12:41.255Z,39.93
2023-06-07T16:15:08.339Z,40.01
2023-06-07T16:17:34.989Z,39.99
2023-06-07T16:20:01.564Z,39.90
2023-06-07T16:22:28.143Z,40.08
2023-06-07T16:24:54.652Z,40.40
2023-06-07T16:27:21.221Z,40.07
2023-06-07T16:29:47.861Z,40.33
2023-06-07T16:32:14.500Z,39.97
2023-06-07T16:34:41.129Z,40.21
2023-06-07T16:37:07.672Z,40.29
2023-06-07T16:39:34.172Z,40.58
2023-06-07T16:42:00.758Z,40.49
2023-06-07T16:44:27.334Z,40.58
2023-06-07T16:46:55.535Z,40.59
2023-06-07T16:49:24.295Z,40.56
2023-06-07T16:51:51.123Z,40.39
2023-06-07T16:54:17.740Z,40.56
2023-06-07T16:56:44.291Z,40.50
2023-06-07T16:59:10.879Z,40.41
2023-06-07T17:01:37.477Z,40.60
2023-06-07T17:04:04.584Z,40.54
2023-06-07T17:06:31.118Z,40.76
2023-06-07T17:08:57.639Z,40.76
2023-06-07T17:11:26.271Z,40.66
2023-06-07T17:13:52.881Z,40.77
2023-06-07T17:16:19.457Z,40.75
2023-06-07T17:18:46.079Z,40.85
2023-06-07T17:21:12.912Z,40.81
2023-06-07T17:23:39.692Z,40.87
2023-06-07T17:26:07.763Z,40.86
2023-06-07T17:28:34.647Z,41.00
2023-06-07T17:31:01.467Z,40.73
2023-06-07T17:33:28.275Z,40.94
2023-06-07T17:35:54.818Z,40.79
2023-06-07T17:38:21.604Z,40.78
2023-06-07T17:40:48.308Z,40.70
2023-06-07T17:43:14.907Z,40.82
2023-06-07T17:45:41.624Z,40.64
2023-06-07T17:48:08.249Z,40.85
2023-06-07T17:50:46.048Z,40.84
2023-06-07T17:53:14.622Z,40.75
2023-06-07T17:55:42.305Z,40.74
2023-06-07T17:58:08.821Z,41.00
2023-06-07T18:00:35.377Z,41.23
2023-06-07T18:03:03.633Z,41.02
2023-06-07T18:05:30.424Z,41.13
2023-06-07T18:07:56.957Z,41.20
2023-06-07T18:10:23.465Z,41.09
2023-06-07T18:12:50.556Z,41.31
2023-06-07T18:15:17.092Z,41.17
2023-06-07T18:17:44.003Z,41.27
2023-06-07T18:20:11.023Z,41.31
2023-06-07T18:22:37.715Z,41.44
2023-06-07T18:25:04.675Z,41.25
2023-06-07T18:27:31.222Z,41.46
2023-06-07T18:29:57.747Z,41.49
2023-06-07T18:32:24.496Z,41.49
2023-06-07T18:34:51.897Z,41.60
2023-06-07T18:37:18.473Z,41.59
2023-06-07T18:39:45.056Z,41.55
2023-06-07T18:42:13.637Z,41.75
2023-06-07T18:44:42.296Z,41.59
2023-06-07T18:47:08.880Z,41.94
2023-06-07T18:49:35.496Z,41.89
2023-06-07T18:52:03.312Z,42.04
2023-06-07T18:54:29.867Z,42.04
2023-06-07T18:56:58.248Z,42.13
2023-06-07T18:59:24.850Z,42.22
2023-06-07T19:01:55.385Z,42.19
2023-06-07T19:04:23.028Z,42.25
2023-06-07T19:06:51.915Z,42.35
2023-06-07T19:09:18.893Z,42.34
2023-06-07T19:11:46.160Z,42.38
2023-06-07T19:14:12.748Z,42.36
2023-06-07T19:16:39.534Z,42.26
2023-06-07T19:19:06.699Z,42.43
2023-06-07T19:21:33.576Z,42.38
2023-06-07T19:24:03.178Z,42.50
2023-06-07T19:26:30.853Z,42.28
2023-06-07T19:29:00.358Z,42.58
2023-06-07T19:31:27.148Z,42.54
2023-06-07T19:33:54.478Z,42.59
2023-06-07T19:36:21.311Z,42.58
2023-06-07T19:38:47.873Z,42.63
2023-06-07T19:41:14.488Z,42.91
2023-06-07T19:43:41.566Z,42.74
2023-06-07T19:46:08.339Z,42.84
2023-06-07T19:48:34.972Z,42.81
2023-06-07T19:51:01.550Z,42.85
2023-06-07T19:53:28.266Z,42.88
2023-06-07T19:55:54.794Z,42.89
2023-06-07T19:58:21.315Z,43.05
2023-06-07T20:00:47.858Z,42.94
2023-06-07T20:03:14.485Z,43.20
2023-06-07T20:05:41.076Z,43.30
2023-06-07T20:08:08.830Z,43.33
2023-06-07T20:10:35.880Z,43.34
2023-06-07T20:13:02.622Z,43.51
2023-06-07T20:15:29.168Z,43.51
2023-06-07T20:17:55.997Z,43.53
2023-06-07T20:20:22.684Z,43.76
2023-06-07T20:22:49.197Z,43.58
2023-06-07T20:25:16.775Z,43.74
2023-06-07T20:27:43.299Z,43.78
2023-06-07T20:30:10.395Z,43.88
2023-06-07T20:32:37.080Z,43.78
2023-06-07T20:35:03.807Z,43.62
2023-06-07T20:37:30.352Z,43.80
2023-06-07T20:39:56.899Z,43.77
2023-06-07T20:42:23.421Z,43.81
2023-06-07T20:44:53.909Z,43.73
2023-06-07T20:47:21.116Z,43.94
2023-06-07T20:49:47.701Z,43.81
2023-06-07T20:52:14.256Z,43.86
2023-06-07T20:54:40.866Z,43.81
2023-06-07T20:57:07.900Z,43.88
2023-06-07T20:59:35.606Z,43.90
2023-06-07T21:02:02.377Z,44.00
2023-06-07T21:04:29.054Z,43.92
2023-06-07T21:06:55.631Z,44.04
2023-06-07T21:09:22.271Z,43.87
2023-06-07T21:11:48.876Z,43.89
2023-06-07T21:14:17.206Z,43.69
2023-06-07T21:16:47.440Z,43.93
2023-06-07T21:19:14.361Z,43.94
2023-06-07T21:21:40.900Z,43.92
2023-06-07T21:24:07.659Z,44.14
2023-06-07T21:26:34.901Z,43.87
2023-06-07T21:29:01.586Z,44.11
2023-06-07T21:31:28.194Z,44.25
2023-06-07T21:34:02.087Z,44.21
2023-06-07T21:36:29.818Z,44.26
2023-06-07T21:38:59.763Z,44.29
2023-06-07T21:41:27.109Z,44.44
2023-06-07T21:43:53.782Z,44.28
2023-06-07T21:46:20.485Z,44.39
2023-06-07T21:48:47.128Z,44.29
2023-06-07T21:51:14.637Z,44.45
2023-06-07T21:53:41.319Z,44.51
2023-06-07T21:56:08.020Z,44.40
2023-06-07T21:58:34.621Z,44.41
2023-06-07T22:01:01.266Z,44.51
2023-06-07T22:03:27.905Z,44.50
2023-06-07T22:05:54.547Z,44.48
2023-06-07T22:08:21.133Z,44.64
2023-06-07T22:10:47.659Z,44.43
2023-06-07T22:13:17.659Z,44.50
2023-06-07T22:15:45.529Z,44.43
2023-06-07T22:18:12.526Z,44.53
2023-06-07T22:20:41.337Z,44.55
2023-06-07T22:23:08.843Z,44.56
2023-06-07T22:25:40.870Z,44.55
2023-06-07T22:28:13.595Z,44.43
2023-06-07T22:30:41.222Z,44.49
2023-06-07T22:33:10.712Z,44.53
2023-06-07T22:35:38.473Z,44.42
2023-06-07T22:38:07.183Z,44.39
2023-06-07T22:40:35.187Z,44.51
2023-06-07T22:43:02.321Z,44.37
2023-06-07T22:45:31.448Z,44.50
2023-06-07T22:48:11.018Z,44.56
2023-06-07T22:50:39.288Z,44.46
2023-06-07T22:53:07.552Z,44.53
2023-06-07T22:55:35.515Z,44.52
2023-06-07T22:58:03.977Z,44.42
2023-06-07T23:00:30.984Z,44.54
2023-06-07T23:03:00.379Z,44.54
2023-06-07T23:05:29.955Z,44.49
2023-06-07T23:07:58.136Z,44.54
2023-06-07T23:10:36.138Z,44.56
2023-06-07T23:13:16.325Z,44.57
2023-06-07T23:15:43.914Z,44.59
2023-06-07T23:18:12.308Z,44.65
2023-06-07T23:20:41.868Z,44.65
2023-06-07T23:23:10.599Z,44.66
2023-06-07T23:25:37.331Z,44.74
2023-06-07T23:28:04.097Z,44.58
2023-06-07T23:30:31.400Z,44.53
2023-06-07T23:32:58.004Z,44.62
2023-06-07T23:35:24.932Z,44.54
2023-06-07T23:37:51.650Z,44.72
2023-06-07T23:40:18.629Z,44.74
2023-06-07T23:42:46.069Z,44.80
2023-06-07T23:45:13.115Z,44.77
2023-06-07T23:47:40.475Z,44.79
2023-06-07T23:50:08.239Z,44.86
2023-06-07T23:52:36.017Z,44.74
2023-06-07T23:55:02.943Z,44.89
2023-06-07T23:57:29.921Z,44.76
2023-06-07T23:59:56.849Z,44.97
